Terminal Aerodrome Forecast
Issued by NWS

Home | Current Version | Previous Version | Text Only | Print | Product List | Glossary On
Versions: 1 2 3 4 5 6 7 8 9 10 11 12 13 14 15 16 17
539
FTAK31 PAJN 240529
TAFASI
TAF
PASI 240529Z 2406/2506 09004KT 4SM -DZ BR BKN013 OVC019
     FM240900 07006KT P6SM OVC050
     FM241200 09004KT P6SM BKN100
     FM241800 07005KT P6SM OVC050
     FM242100 33005KT P6SM VCSH OVC050=

USA.gov is the U.S. government's official web portal to all federal, state and local government web resources and services.